This is the latest recevied weather packets stored in our database for station/object KJ6LNH-1. If no packets are shown the sender has not sent any weather packets the latest 10 day(s).
| Time | Temp. | Humidity | Pressure | Rain* | Wind** | Luminosity | Snow |
|---|---|---|---|---|---|---|---|
| 1778178608 | 20° C | 62% | 1017.4 hPa | 0 mm | - | - | - |
| 1778178308 | 21.11° C | 59% | 1017.5 hPa | 0 mm | - | - | - |
| 1778178007 | 21.11° C | 60% | 1017.5 hPa | 0 mm | - | - | - |
| 1778177708 | 20.56° C | 60% | 1017.6 hPa | 0 mm | - | - | - |
| 1778176807 | 20.56° C | 61% | 1017.7 hPa | 0 mm | - | - | - |
| 1778176508 | 20° C | 62% | 1017.7 hPa | 0 mm | - | - | - |
| 1778176216 | 20° C | 61% | 1017.7 hPa | 0 mm | - | - | - |
| 1778175907 | 18.89° C | 63% | 1017.7 hPa | 0 mm | - | - | - |
| 1778175608 | 19.44° C | 62% | 1017.7 hPa | 0 mm | - | - | - |
| 1778175010 | 18.89° C | 64% | 1017.7 hPa | 0 mm | - | - | - |
| 1778174708 | 18.33° C | 64% | 1017.6 hPa | 0 mm | - | - | - |
| 1778174407 | 18.33° C | 64% | 1017.6 hPa | 0 mm | - | - | - |
| 1778174108 | 17.78° C | 66% | 1017.6 hPa | 0 mm | - | - | - |
| 1778173808 | 17.78° C | 67% | 1017.6 hPa | 0 mm | - | - | - |
| 1778173207 | 17.22° C | 68% | 1017.6 hPa | 0 mm | - | - | - |
| 1778172925 | 17.22° C | 69% | 1017.6 hPa | 0 mm | - | - | - |
| 1778172008 | 16.11° C | 74% | 1017.6 hPa | 0 mm | - | - | - |
| 1778170808 | 15.56° C | 77% | 1017.6 hPa | 0 mm | - | - | - |
| 1778170208 | 15° C | 79% | 1017.7 hPa | 0 mm | - | - | - |
| 1778169307 | 14.44° C | 81% | 1017.6 hPa | 0 mm | - | - | - |
| 1778169007 | 14.44° C | 82% | 1017.6 hPa | 0 mm | - | - | - |
| 1778168708 | 14.44° C | 82% | 1017.6 hPa | 0 mm | - | - | - |
| 1778168118 | 13.89° C | 85% | 1017.6 hPa | 0 mm | - | - | - |
| 1778167808 | 13.33° C | 86% | 1017.7 hPa | 0 mm | - | - | - |
| 1778167507 | 13.33° C | 87% | 1017.7 hPa | 0 mm | - | - | - |
* Rain latest hour (hover to see other rain measurements)
** Current wind speed in m/s (hover to see current wind gust speed)